Time;durP1;ratioP1;P1;durP2;ratioP2;P2;SDS_P1;SDS_P2;PMS_P1;PMS_P2;Temp;Humidity;BMP_temperature;BMP_pressure;BME280_temperature;BME280_humidity;BME280_pressure;Samples;Min_cycle;Max_cycle;Signal;HPM_P1;HPM_P2
2023/05/15 00:01:41;;;;;;;8.97;5.70;;;12.80;99.90;;;;;;4168279;28;20215;-79
2023/05/15 00:03:43;;;;;;;6.57;4.93;;;12.70;99.90;;;;;;4170248;28;20214;-78
2023/05/15 00:05:45;;;;;;;9.03;5.40;;;12.70;99.90;;;;;;4169922;28;20213;-79
2023/05/15 00:07:47;;;;;;;8.47;5.50;;;12.70;99.90;;;;;;4169808;28;20219;-79
2023/05/15 00:09:49;;;;;;;8.97;5.47;;;12.60;99.90;;;;;;4170492;28;20272;-79
2023/05/15 00:11:51;;;;;;;9.43;5.23;;;12.60;99.90;;;;;;4166460;28;20206;-79
2023/05/15 00:13:53;;;;;;;7.97;5.53;;;12.60;99.90;;;;;;4167898;28;20303;-77
2023/05/15 00:15:55;;;;;;;7.03;5.10;;;12.60;99.90;;;;;;4170095;28;20966;-78
2023/05/15 00:17:59;;;;;;;6.70;5.20;;;12.50;99.90;;;;;;4168677;28;20227;-78
2023/05/15 00:20:01;;;;;;;7.73;5.30;;;12.50;99.90;;;;;;4168267;28;20227;-79
2023/05/15 00:22:02;;;;;;;7.23;5.13;;;12.50;99.90;;;;;;4172373;28;20207;-78
2023/05/15 00:24:08;;;;;;;7.67;5.40;;;12.40;99.90;;;;;;4169224;28;20201;-77
2023/05/15 00:26:10;;;;;;;8.97;5.63;;;12.40;99.90;;;;;;4167111;28;20260;-77
2023/05/15 00:28:11;;;;;;;7.43;5.17;;;12.30;99.90;;;;;;4168440;28;20217;-78
2023/05/15 00:30:14;;;;;;;6.73;4.83;;;12.30;99.90;;;;;;4169670;28;20207;-79
2023/05/15 00:32:16;;;;;;;7.03;5.10;;;12.30;99.90;;;;;;4164063;28;20218;-79
2023/05/15 00:34:21;;;;;;;7.93;5.67;;;12.20;99.90;;;;;;4171749;28;20241;-79
2023/05/15 00:36:24;;;;;;;7.40;5.10;;;12.20;99.90;;;;;;4168901;28;20230;-79
2023/05/15 00:38:26;;;;;;;7.37;4.73;;;12.20;99.90;;;;;;4168578;28;20237;-78
2023/05/15 00:40:29;;;;;;;7.27;4.90;;;12.10;99.90;;;;;;4166501;28;20243;-77
2023/05/15 00:42:31;;;;;;;7.80;5.50;;;12.10;99.90;;;;;;4170174;28;20211;-78
2023/05/15 00:44:34;;;;;;;9.87;5.40;;;12.10;99.90;;;;;;4167239;28;20218;-79
2023/05/15 00:46:38;;;;;;;7.63;5.13;;;12.00;99.90;;;;;;4170105;28;20682;-78
2023/05/15 00:48:40;;;;;;;8.13;5.73;;;12.00;99.90;;;;;;4172091;28;20547;-78
2023/05/15 00:50:44;;;;;;;8.00;5.70;;;11.90;99.90;;;;;;4168792;28;20253;-78
2023/05/15 00:52:47;;;;;;;8.57;5.83;;;11.90;99.90;;;;;;4167984;28;20672;-78
2023/05/15 00:54:49;;;;;;;8.80;5.90;;;11.90;99.90;;;;;;4168984;28;20210;-77
2023/05/15 00:56:52;;;;;;;7.43;5.60;;;11.90;99.90;;;;;;4169507;28;20772;-79
2023/05/15 00:58:55;;;;;;;8.33;5.17;;;11.90;99.90;;;;;;4167036;28;20254;-78
2023/05/15 01:00:57;;;;;;;6.27;4.83;;;11.80;99.90;;;;;;4168100;28;20229;-77
2023/05/15 01:03:00;;;;;;;7.57;5.33;;;11.80;99.90;;;;;;4168595;28;20682;-78
2023/05/15 01:05:03;;;;;;;8.33;5.57;;;11.80;99.90;;;;;;4170869;28;20577;-78
2023/05/15 01:07:06;;;;;;;10.13;6.00;;;11.80;99.90;;;;;;4170781;28;20260;-78
2023/05/15 01:09:10;;;;;;;9.10;6.10;;;11.80;99.90;;;;;;4166017;28;20296;-78
2023/05/15 01:11:13;;;;;;;10.20;5.70;;;11.80;99.90;;;;;;4166651;28;20219;-78
2023/05/15 01:13:16;;;;;;;9.63;6.20;;;11.80;99.90;;;;;;4166775;28;20310;-78
2023/05/15 01:15:18;;;;;;;7.07;5.27;;;11.90;99.90;;;;;;4170606;28;20224;-78
2023/05/15 01:17:20;;;;;;;8.37;5.80;;;11.70;99.90;;;;;;4166821;28;20325;-78
2023/05/15 01:19:22;;;;;;;7.73;5.70;;;11.70;99.90;;;;;;4167015;28;20275;-78
2023/05/15 01:22:15;;;;;;;8.30;5.47;;;11.70;99.90;;;;;;4163521;28;20218;-78
2023/05/15 01:24:42;;;;;;;8.10;5.50;;;11.70;99.90;;;;;;4101202;28;20934;-79
2023/05/15 01:27:19;;;;;;;7.63;5.17;;;11.70;99.90;;;;;;4100802;28;20246;-77
2023/05/15 01:29:27;;;;;;;8.20;5.00;;;11.60;99.90;;;;;;4132564;28;20226;-78
2023/05/15 01:31:32;;;;;;;7.13;5.10;;;11.60;99.90;;;;;;4171671;28;20212;-78
2023/05/15 01:33:38;;;;;;;6.70;5.23;;;11.60;99.90;;;;;;4174159;28;20317;-77
2023/05/15 01:35:46;;;;;;;7.83;4.93;;;11.60;99.90;;;;;;4170878;28;20240;-78
2023/05/15 01:37:55;;;;;;;8.27;5.20;;;11.50;99.90;;;;;;4170960;28;20257;-78
2023/05/15 01:40:00;;;;;;;8.93;5.60;;;11.50;99.90;;;;;;4171526;28;20327;-78
2023/05/15 01:42:07;;;;;;;8.27;5.53;;;11.50;99.90;;;;;;4173507;28;20217;-77
2023/05/15 01:44:15;;;;;;;9.07;5.60;;;11.40;99.90;;;;;;4169467;28;20209;-78
2023/05/15 01:46:23;;;;;;;9.93;6.23;;;11.40;99.90;;;;;;4175136;28;20268;-78
2023/05/15 01:48:27;;;;;;;8.23;5.97;;;11.40;99.90;;;;;;4177624;28;20269;-77
2023/05/15 01:50:32;;;;;;;10.63;6.40;;;11.40;99.90;;;;;;4171685;28;20311;-79
2023/05/15 01:52:38;;;;;;;6.90;5.50;;;11.40;99.90;;;;;;4174381;28;20215;-77
2023/05/15 01:54:41;;;;;;;8.53;5.43;;;11.40;99.90;;;;;;4172952;28;20313;-77
2023/05/15 01:56:45;;;;;;;8.07;5.87;;;11.30;99.90;;;;;;4168555;28;20722;-78
2023/05/15 01:58:47;;;;;;;8.00;5.43;;;11.30;99.90;;;;;;4173550;28;20601;-77
2023/05/15 02:00:50;;;;;;;6.80;5.43;;;11.30;99.90;;;;;;4171714;28;20852;-78
2023/05/15 02:02:54;;;;;;;7.53;5.43;;;11.30;99.90;;;;;;4168498;28;20297;-78
2023/05/15 02:04:59;;;;;;;7.23;5.47;;;11.30;99.90;;;;;;4172621;28;20308;-77
2023/05/15 02:07:02;;;;;;;8.17;5.50;;;11.20;99.90;;;;;;4169136;28;20247;-77
2023/05/15 02:09:05;;;;;;;8.33;5.90;;;11.20;99.90;;;;;;4167776;28;20206;-77
2023/05/15 02:11:07;;;;;;;8.23;5.90;;;11.20;99.90;;;;;;4170699;28;20240;-78
2023/05/15 02:13:09;;;;;;;10.87;6.87;;;11.20;99.90;;;;;;4171390;28;20217;-78
2023/05/15 02:15:13;;;;;;;10.70;6.83;;;11.20;99.90;;;;;;4170699;28;20245;-77
2023/05/15 02:17:15;;;;;;;11.23;7.37;;;11.20;99.90;;;;;;4168273;28;20244;-76
2023/05/15 02:19:18;;;;;;;8.77;6.50;;;11.20;99.90;;;;;;4170820;28;20724;-79
2023/05/15 02:21:20;;;;;;;8.90;6.30;;;11.20;99.90;;;;;;4170575;28;20221;-79
2023/05/15 02:23:22;;;;;;;9.87;7.07;;;11.20;99.90;;;;;;4170437;28;20209;-78
2023/05/15 02:25:32;;;;;;;9.47;6.83;;;11.10;99.90;;;;;;4171210;28;20254;-78
2023/05/15 02:27:51;;;;;;;8.37;6.17;;;11.10;99.90;;;;;;4168541;28;20233;-78
2023/05/15 02:30:08;;;;;;;10.53;6.87;;;11.10;99.90;;;;;;4169509;28;20209;-79
2023/05/15 02:32:17;;;;;;;8.60;6.40;;;11.00;99.90;;;;;;4164770;28;20209;-78
2023/05/15 02:34:32;;;;;;;9.40;6.80;;;11.00;99.90;;;;;;4164825;28;20205;-78
2023/05/15 02:36:40;;;;;;;9.60;6.70;;;11.00;99.90;;;;;;4165057;28;20647;-76
2023/05/15 02:38:48;;;;;;;11.53;6.87;;;11.00;99.90;;;;;;4162586;28;20271;-78
2023/05/15 02:40:51;;;;;;;11.97;8.13;;;10.90;99.90;;;;;;4162814;28;20212;-76
2023/05/15 02:42:53;;;;;;;11.97;8.07;;;10.90;99.90;;;;;;4167669;28;20337;-77
2023/05/15 02:44:57;;;;;;;10.63;7.83;;;10.90;99.90;;;;;;4167238;28;20313;-78
2023/05/15 02:47:00;;;;;;;10.80;7.40;;;10.90;99.90;;;;;;4168194;28;20237;-78
2023/05/15 02:49:03;;;;;;;12.13;7.63;;;10.80;99.90;;;;;;4171300;28;20213;-78
2023/05/15 02:51:07;;;;;;;11.73;7.43;;;10.90;99.90;;;;;;4170714;28;20224;-78
2023/05/15 02:53:10;;;;;;;10.93;7.60;;;10.80;99.90;;;;;;4170178;28;20213;-78
2023/05/15 02:55:12;;;;;;;10.00;7.23;;;10.80;99.90;;;;;;4169103;28;20212;-78
2023/05/15 02:57:14;;;;;;;10.23;7.30;;;10.80;99.90;;;;;;4170633;28;20237;-78
2023/05/15 02:59:18;;;;;;;11.20;7.57;;;10.80;99.90;;;;;;4173372;28;20233;-78
2023/05/15 03:01:20;;;;;;;10.83;7.43;;;10.90;99.90;;;;;;4169064;28;20231;-78
2023/05/15 03:03:22;;;;;;;14.47;9.20;;;10.80;99.90;;;;;;4170434;28;20210;-78
2023/05/15 03:05:24;;;;;;;11.83;7.63;;;10.70;99.90;;;;;;4169299;28;20213;-78
2023/05/15 03:07:29;;;;;;;11.70;7.97;;;10.70;99.90;;;;;;4168546;28;20924;-76
2023/05/15 03:09:30;;;;;;;12.33;8.33;;;10.70;99.90;;;;;;4166789;28;20687;-78
2023/05/15 03:11:32;;;;;;;13.90;8.00;;;10.70;99.90;;;;;;4170051;28;20210;-77
2023/05/15 03:13:34;;;;;;;13.17;8.20;;;10.70;99.90;;;;;;4168954;28;20274;-78
2023/05/15 03:15:36;;;;;;;10.07;7.33;;;10.70;99.90;;;;;;4168959;28;20217;-78
2023/05/15 03:17:38;;;;;;;10.10;7.27;;;10.70;99.90;;;;;;4165891;28;20632;-77
2023/05/15 03:19:40;;;;;;;11.07;7.40;;;10.70;99.90;;;;;;4169866;28;20236;-77
2023/05/15 03:21:42;;;;;;;12.80;8.20;;;10.70;99.90;;;;;;4170029;28;20220;-77
2023/05/15 03:23:45;;;;;;;11.17;7.60;;;10.70;99.90;;;;;;4186196;28;20209;-77
2023/05/15 03:25:47;;;;;;;11.83;7.87;;;10.70;99.90;;;;;;4168455;28;20893;-78
2023/05/15 03:27:49;;;;;;;11.90;8.03;;;10.70;99.90;;;;;;4168501;28;20228;-77
2023/05/15 03:29:51;;;;;;;10.43;7.43;;;10.70;99.90;;;;;;4170751;28;20263;-78
2023/05/15 03:31:53;;;;;;;9.90;7.40;;;10.70;99.90;;;;;;4200109;28;20837;-78
2023/05/15 03:33:55;;;;;;;12.63;7.80;;;10.70;99.90;;;;;;4170549;28;20579;-77
2023/05/15 03:35:57;;;;;;;11.50;7.90;;;10.70;99.90;;;;;;4168957;28;20581;-77
2023/05/15 03:37:59;;;;;;;10.03;7.37;;;10.70;99.90;;;;;;4169671;28;20614;-77
2023/05/15 03:40:06;;;;;;;11.93;8.23;;;10.70;99.90;;;;;;4165268;28;20306;-78
2023/05/15 03:42:08;;;;;;;13.47;7.67;;;10.70;99.90;;;;;;4170405;28;20614;-78
2023/05/15 03:44:13;;;;;;;13.53;8.57;;;10.70;99.90;;;;;;4165752;28;20256;-78
2023/05/15 03:46:16;;;;;;;11.93;8.50;;;10.60;99.90;;;;;;4171655;28;20695;-78
2023/05/15 03:48:18;;;;;;;11.97;8.07;;;11.00;99.90;;;;;;4163872;28;20295;-77
2023/05/15 03:50:20;;;;;;;11.10;7.57;;;10.60;99.90;;;;;;4166318;28;20773;-77
2023/05/15 03:52:23;;;;;;;11.20;8.27;;;10.60;99.90;;;;;;4170198;28;20206;-77
2023/05/15 03:54:25;;;;;;;11.80;8.00;;;10.60;99.90;;;;;;4171483;28;20225;-78
2023/05/15 03:56:28;;;;;;;11.57;7.63;;;10.60;99.90;;;;;;4169852;28;20232;-78
2023/05/15 03:58:30;;;;;;;9.83;7.20;;;10.60;99.90;;;;;;4170945;28;20978;-78
2023/05/15 04:00:32;;;;;;;10.73;7.97;;;10.60;99.90;;;;;;4173408;28;20220;-78
2023/05/15 04:02:34;;;;;;;11.80;8.53;;;10.70;99.90;;;;;;4171663;28;20641;-78
2023/05/15 04:04:37;;;;;;;12.13;8.40;;;10.60;99.90;;;;;;4170258;28;20213;-77
2023/05/15 04:06:39;;;;;;;12.47;8.80;;;10.70;99.90;;;;;;4169468;28;20917;-78
2023/05/15 04:08:41;;;;;;;12.73;8.27;;;10.60;99.90;;;;;;4172910;28;20221;-78
2023/05/15 04:10:43;;;;;;;10.47;7.70;;;10.70;99.90;;;;;;4168441;28;20235;-75
2023/05/15 04:12:46;;;;;;;13.03;8.77;;;10.60;99.90;;;;;;4172996;28;20205;-75
2023/05/15 04:14:48;;;;;;;13.47;8.33;;;10.70;99.90;;;;;;4168438;28;20233;-75
2023/05/15 04:16:50;;;;;;;12.40;8.13;;;10.70;99.90;;;;;;4168938;28;20224;-77
2023/05/15 04:18:52;;;;;;;11.90;7.83;;;10.70;99.90;;;;;;4169260;28;20299;-76
2023/05/15 04:20:54;;;;;;;12.87;8.63;;;10.70;99.90;;;;;;4170427;28;20205;-76
2023/05/15 04:22:56;;;;;;;10.93;7.37;;;10.70;99.90;;;;;;4170662;28;20210;-75
2023/05/15 04:24:58;;;;;;;12.40;8.30;;;10.70;99.90;;;;;;4175140;28;20228;-77
2023/05/15 04:27:00;;;;;;;11.37;7.93;;;10.70;99.90;;;;;;4168790;28;20340;-78
2023/05/15 04:29:03;;;;;;;11.27;7.70;;;10.70;99.90;;;;;;4169736;28;20226;-76
2023/05/15 04:31:08;;;;;;;12.73;8.03;;;10.80;99.90;;;;;;4175306;28;20204;-75
2023/05/15 04:33:16;;;;;;;11.50;7.63;;;10.80;99.90;;;;;;4174227;28;20213;-76
2023/05/15 04:35:18;;;;;;;15.37;9.60;;;10.80;99.90;;;;;;4173724;28;20262;-77
2023/05/15 04:37:20;;;;;;;10.43;7.73;;;10.80;99.90;;;;;;4170347;28;20228;-77
2023/05/15 04:39:22;;;;;;;11.63;7.67;;;10.80;99.90;;;;;;4168809;28;20298;-75
2023/05/15 04:41:24;;;;;;;11.33;7.23;;;10.80;99.90;;;;;;4173525;28;20759;-75
2023/05/15 04:43:26;;;;;;;10.97;8.13;;;10.80;99.90;;;;;;4169577;28;20204;-75
2023/05/15 04:45:29;;;;;;;8.93;6.80;;;10.80;99.90;;;;;;4170735;28;20208;-75
2023/05/15 04:47:31;;;;;;;10.10;6.33;;;10.90;99.90;;;;;;4173999;28;20595;-76
2023/05/15 04:49:33;;;;;;;9.10;6.73;;;10.90;99.90;;;;;;4171828;28;20213;-76
2023/05/15 04:51:35;;;;;;;11.13;7.43;;;10.90;99.90;;;;;;4169584;28;20278;-75
2023/05/15 04:53:37;;;;;;;11.07;7.73;;;10.90;99.90;;;;;;4174966;28;20213;-75
2023/05/15 04:55:39;;;;;;;11.37;8.03;;;11.00;99.90;;;;;;4172913;28;20222;-75
2023/05/15 04:57:41;;;;;;;12.70;8.63;;;11.00;99.90;;;;;;4170958;28;20233;-75
2023/05/15 04:59:43;;;;;;;15.43;9.17;;;11.00;99.90;;;;;;4171739;28;20278;-76
2023/05/15 05:01:46;;;;;;;13.57;9.00;;;11.00;99.90;;;;;;4168741;28;20237;-77
2023/05/15 05:03:48;;;;;;;11.70;8.23;;;11.00;99.90;;;;;;4173031;28;20202;-76
2023/05/15 05:05:53;;;;;;;12.60;8.00;;;11.00;99.90;;;;;;4172800;28;20805;-77
2023/05/15 05:07:55;;;;;;;12.60;9.10;;;11.10;99.90;;;;;;4171999;28;20310;-77
2023/05/15 05:09:58;;;;;;;12.13;8.53;;;11.10;99.90;;;;;;4176537;28;20205;-76
2023/05/15 05:12:01;;;;;;;13.60;8.20;;;11.10;99.90;;;;;;4171378;28;20313;-76
2023/05/15 05:14:03;;;;;;;11.47;8.00;;;11.20;99.90;;;;;;4177676;28;20288;-75
2023/05/15 05:16:05;;;;;;;12.27;8.83;;;11.20;99.90;;;;;;4174359;28;20766;-75
2023/05/15 05:18:08;;;;;;;12.00;8.40;;;11.30;99.90;;;;;;4169869;28;20234;-76
2023/05/15 05:20:12;;;;;;;13.30;8.77;;;11.30;99.90;;;;;;4169467;28;20218;-75
2023/05/15 05:22:14;;;;;;;12.03;8.53;;;11.30;99.90;;;;;;4175186;28;20201;-76
2023/05/15 05:24:15;;;;;;;11.73;8.57;;;11.40;99.90;;;;;;4176199;28;20234;-77
2023/05/15 05:26:17;;;;;;;15.07;8.93;;;11.40;99.90;;;;;;4173342;28;20198;-76
2023/05/15 05:28:19;;;;;;;11.57;8.27;;;11.40;99.90;;;;;;4174146;28;20206;-77
2023/05/15 05:30:22;;;;;;;10.50;8.07;;;11.50;99.90;;;;;;4177436;28;20216;-78
2023/05/15 05:32:24;;;;;;;11.60;8.20;;;11.50;99.90;;;;;;4167976;28;20221;-79
2023/05/15 05:34:27;;;;;;;11.17;7.77;;;11.50;99.90;;;;;;4176410;28;20284;-81
2023/05/15 05:36:29;;;;;;;14.27;9.27;;;11.60;99.90;;;;;;4171975;28;20276;-76
2023/05/15 05:38:31;;;;;;;11.33;8.37;;;11.60;99.90;;;;;;4176519;28;20224;-77
2023/05/15 05:40:33;;;;;;;10.53;7.47;;;11.60;99.90;;;;;;4177120;28;20229;-76
2023/05/15 05:42:35;;;;;;;13.17;7.73;;;11.60;99.90;;;;;;4177076;28;20211;-77
2023/05/15 05:44:37;;;;;;;12.20;8.80;;;11.70;99.90;;;;;;4178306;28;20222;-76
2023/05/15 05:46:39;;;;;;;11.27;8.47;;;11.60;99.90;;;;;;4180932;28;20218;-76
2023/05/15 05:48:41;;;;;;;10.70;7.83;;;11.70;99.90;;;;;;4183381;28;20221;-79
2023/05/15 05:50:44;;;;;;;12.07;8.10;;;11.70;99.90;;;;;;4177553;28;20202;-76
2023/05/15 05:52:50;;;;;;;12.33;7.80;;;11.70;99.90;;;;;;4176845;28;20211;-76
2023/05/15 05:54:52;;;;;;;12.00;8.27;;;11.70;99.90;;;;;;4170575;28;20207;-76
2023/05/15 05:56:54;;;;;;;11.97;8.57;;;11.70;99.90;;;;;;4175603;28;20301;-76
2023/05/15 05:58:56;;;;;;;14.57;8.83;;;11.70;99.90;;;;;;4180656;28;20209;-76
2023/05/15 06:00:58;;;;;;;12.97;8.27;;;11.70;99.90;;;;;;4168471;28;20229;-76
2023/05/15 06:03:00;;;;;;;10.87;7.97;;;11.80;99.90;;;;;;4171941;28;20285;-77
2023/05/15 06:05:02;;;;;;;10.23;7.97;;;11.80;99.90;;;;;;4179716;28;20299;-76
2023/05/15 06:07:06;;;;;;;12.07;8.77;;;11.80;99.90;;;;;;4168745;28;20273;-76
2023/05/15 06:09:08;;;;;;;10.83;7.37;;;11.80;99.90;;;;;;4170373;28;20211;-77
2023/05/15 06:11:10;;;;;;;13.43;9.13;;;11.90;99.90;;;;;;4174254;28;20664;-77
2023/05/15 06:13:13;;;;;;;12.43;8.63;;;11.90;99.90;;;;;;4178463;28;20214;-76
2023/05/15 06:15:16;;;;;;;12.63;8.57;;;11.90;99.90;;;;;;4171576;28;20203;-78
2023/05/15 06:17:18;;;;;;;12.70;8.60;;;12.00;99.90;;;;;;4174333;28;20225;-77
2023/05/15 06:19:20;;;;;;;13.47;9.40;;;12.00;99.90;;;;;;4172854;28;20260;-77
2023/05/15 06:21:22;;;;;;;12.03;8.40;;;12.00;99.90;;;;;;4176418;28;20330;-76
2023/05/15 06:23:25;;;;;;;12.40;8.77;;;12.00;99.90;;;;;;4171707;28;20215;-77
2023/05/15 06:25:27;;;;;;;12.53;7.90;;;12.00;99.90;;;;;;4172902;28;20213;-78
2023/05/15 06:27:29;;;;;;;11.07;8.43;;;11.90;99.90;;;;;;4175061;28;20283;-79
2023/05/15 06:29:31;;;;;;;11.07;8.20;;;12.00;99.90;;;;;;4174273;28;20261;-77
2023/05/15 06:31:33;;;;;;;10.73;8.23;;;12.00;99.90;;;;;;4175595;28;20269;-76
2023/05/15 06:33:35;;;;;;;11.13;8.30;;;12.00;99.90;;;;;;4169570;28;20927;-77
2023/05/15 06:35:37;;;;;;;10.13;8.03;;;12.00;99.90;;;;;;4172424;28;20268;-77
2023/05/15 06:37:39;;;;;;;12.57;8.73;;;12.10;99.90;;;;;;4172719;28;20637;-78
2023/05/15 06:39:42;;;;;;;14.37;9.77;;;12.10;99.90;;;;;;4179693;28;20206;-77
2023/05/15 06:41:44;;;;;;;12.47;8.90;;;12.20;99.90;;;;;;4177603;28;20248;-77
2023/05/15 06:43:46;;;;;;;14.23;10.50;;;12.20;99.90;;;;;;4176618;28;20198;-76
2023/05/15 06:45:49;;;;;;;13.73;9.27;;;12.20;99.90;;;;;;4178247;28;20264;-80
2023/05/15 06:47:51;;;;;;;14.23;9.07;;;12.20;99.90;;;;;;4172759;28;20248;-77
2023/05/15 06:49:54;;;;;;;15.13;10.37;;;12.20;99.90;;;;;;4171188;28;20215;-77
2023/05/15 06:51:56;;;;;;;14.90;10.10;;;12.20;99.90;;;;;;4170150;28;20214;-78
2023/05/15 06:53:58;;;;;;;14.17;10.20;;;12.30;99.90;;;;;;4170092;28;20691;-76
2023/05/15 06:56:01;;;;;;;15.10;10.63;;;12.30;99.90;;;;;;4171279;28;20263;-77
2023/05/15 06:58:04;;;;;;;16.30;10.80;;;12.40;99.90;;;;;;4173599;28;20680;-77
2023/05/15 07:00:07;;;;;;;13.87;10.00;;;12.40;99.90;;;;;;4172148;28;20230;-79
2023/05/15 07:02:09;;;;;;;15.23;10.53;;;12.40;99.90;;;;;;4174820;28;20776;-78
2023/05/15 07:04:11;;;;;;;14.00;9.93;;;12.50;99.90;;;;;;4173416;28;20589;-77
2023/05/15 07:06:13;;;;;;;13.93;9.87;;;12.50;99.90;;;;;;4166990;28;20211;-77
2023/05/15 07:08:15;;;;;;;13.70;9.60;;;12.50;99.90;;;;;;4171063;28;20275;-78
2023/05/15 07:10:17;;;;;;;12.00;9.53;;;12.60;99.90;;;;;;4173422;28;20206;-76
2023/05/15 07:12:20;;;;;;;13.80;9.70;;;12.60;99.90;;;;;;4172268;28;20206;-78
2023/05/15 07:14:22;;;;;;;15.00;10.50;;;12.70;99.90;;;;;;4167458;28;20660;-77
2023/05/15 07:16:24;;;;;;;13.33;10.13;;;12.70;99.90;;;;;;4175067;28;20277;-77
2023/05/15 07:18:28;;;;;;;12.93;10.07;;;12.80;99.90;;;;;;4172447;28;20210;-77
2023/05/15 07:20:30;;;;;;;13.03;9.47;;;12.90;99.90;;;;;;4170357;28;20629;-77
2023/05/15 07:22:32;;;;;;;12.77;8.70;;;12.90;99.90;;;;;;4165441;28;20203;-77
2023/05/15 07:24:34;;;;;;;15.50;10.60;;;13.00;99.90;;;;;;4174092;28;20214;-77
2023/05/15 07:26:36;;;;;;;12.20;9.03;;;13.10;99.90;;;;;;4172838;28;20316;-77
2023/05/15 07:28:41;;;;;;;16.17;11.30;;;13.20;99.90;;;;;;4174660;28;20689;-77
2023/05/15 07:30:43;;;;;;;14.77;9.30;;;13.30;99.90;;;;;;4174528;28;20573;-77
2023/05/15 07:32:45;;;;;;;13.23;9.80;;;13.30;99.90;;;;;;4174819;28;20211;-76
2023/05/15 07:34:47;;;;;;;12.67;8.77;;;13.40;99.90;;;;;;4172390;28;20201;-77
2023/05/15 07:36:49;;;;;;;13.57;9.37;;;13.50;99.90;;;;;;4170994;28;20215;-78
2023/05/15 07:38:54;;;;;;;13.50;9.50;;;13.60;99.90;;;;;;4166352;28;20269;-76
2023/05/15 07:40:56;;;;;;;11.73;8.77;;;13.60;99.90;;;;;;4170582;28;20242;-78
2023/05/15 07:42:58;;;;;;;14.10;8.37;;;13.70;99.90;;;;;;4174605;28;20261;-78
2023/05/15 07:45:02;;;;;;;15.50;9.40;;;13.80;99.90;;;;;;4178426;28;20235;-77
2023/05/15 07:47:04;;;;;;;13.50;9.20;;;13.90;99.90;;;;;;4171710;28;20254;-77
2023/05/15 07:49:06;;;;;;;11.87;8.70;;;13.90;99.90;;;;;;4174619;28;20313;-77
2023/05/15 07:51:07;;;;;;;12.27;9.27;;;14.00;99.90;;;;;;4172591;28;20274;-78
2023/05/15 07:53:09;;;;;;;11.83;8.00;;;14.10;99.90;;;;;;4171120;28;20263;-76
2023/05/15 07:55:12;;;;;;;12.13;8.20;;;14.20;99.90;;;;;;4174042;28;20201;-76
2023/05/15 07:57:14;;;;;;;11.27;7.50;;;14.30;99.90;;;;;;4178107;28;20244;-76
2023/05/15 07:59:17;;;;;;;10.50;7.03;;;14.50;99.90;;;;;;4171089;28;20219;-76
2023/05/15 08:01:20;;;;;;;9.60;7.50;;;14.50;99.90;;;;;;4169802;28;20231;-76
2023/05/15 08:03:22;;;;;;;9.57;6.60;;;14.50;99.90;;;;;;4171824;28;20212;-76
2023/05/15 08:05:24;;;;;;;9.27;6.50;;;14.60;99.90;;;;;;4174203;28;20211;-77
2023/05/15 08:07:26;;;;;;;7.77;6.13;;;14.70;99.90;;;;;;4173563;28;20221;-77
2023/05/15 08:09:33;;;;;;;8.63;6.23;;;14.80;99.90;;;;;;4170031;28;20579;-78
2023/05/15 08:11:35;;;;;;;9.67;7.00;;;14.80;99.90;;;;;;4169477;28;20216;-77
2023/05/15 08:13:37;;;;;;;9.43;6.10;;;14.90;99.90;;;;;;4170576;28;20254;-79
2023/05/15 08:15:39;;;;;;;6.83;5.67;;;15.00;99.90;;;;;;4170641;28;20244;-76
2023/05/15 08:17:42;;;;;;;8.20;6.23;;;15.10;99.90;;;;;;4171954;28;20315;-79
2023/05/15 08:19:44;;;;;;;7.40;5.37;;;15.20;99.90;;;;;;4169945;28;20268;-80
2023/05/15 08:21:46;;;;;;;7.43;5.57;;;15.30;99.90;;;;;;4170501;28;20237;-79
2023/05/15 08:23:48;;;;;;;9.30;5.70;;;15.50;99.90;;;;;;4169820;28;20214;-80
2023/05/15 08:25:50;;;;;;;9.60;5.07;;;15.60;99.90;;;;;;4198582;28;20303;-79
2023/05/15 08:27:52;;;;;;;9.70;4.77;;;15.80;99.90;;;;;;4169608;28;20669;-80
2023/05/15 08:29:54;;;;;;;7.77;4.50;;;15.90;99.90;;;;;;4172739;28;20225;-79
2023/05/15 08:31:56;;;;;;;8.07;4.57;;;16.00;99.90;;;;;;4173335;28;20544;-78
2023/05/15 08:34:00;;;;;;;5.87;4.60;;;16.10;99.90;;;;;;4171816;28;20605;-77
2023/05/15 08:36:02;;;;;;;5.13;3.90;;;16.20;99.90;;;;;;4172430;28;20218;-77
2023/05/15 08:38:03;;;;;;;6.93;3.93;;;16.30;99.90;;;;;;4177435;28;20202;-77
2023/05/15 08:40:06;;;;;;;6.73;4.10;;;16.30;99.90;;;;;;4171798;28;20264;-77
2023/05/15 08:42:14;;;;;;;8.13;4.17;;;16.40;99.90;;;;;;4167745;28;20219;-77
2023/05/15 08:44:17;;;;;;;6.13;3.60;;;16.50;99.90;;;;;;4168722;28;20252;-79
2023/05/15 08:46:19;;;;;;;6.60;4.27;;;16.60;99.90;;;;;;4172000;28;20207;-77
2023/05/15 08:48:24;;;;;;;6.87;3.90;;;16.60;99.90;;;;;;4164572;28;20235;-78
2023/05/15 08:50:29;;;;;;;6.17;4.17;;;16.70;99.90;;;;;;4168649;28;20249;-78
2023/05/15 08:52:32;;;;;;;8.73;4.50;;;16.70;99.90;;;;;;4174595;28;20206;-78
2023/05/15 08:54:35;;;;;;;5.87;4.47;;;16.80;99.90;;;;;;4166102;28;20206;-77
2023/05/15 08:56:37;;;;;;;5.27;3.70;;;16.90;99.90;;;;;;4169152;28;20231;-77
2023/05/15 08:58:39;;;;;;;4.20;3.07;;;16.90;99.90;;;;;;4172826;28;20208;-77
2023/05/15 09:00:42;;;;;;;5.53;3.40;;;17.00;99.90;;;;;;4175603;28;20207;-77
2023/05/15 09:02:44;;;;;;;4.87;3.00;;;17.10;99.90;;;;;;4177771;28;20229;-78
2023/05/15 09:04:46;;;;;;;3.40;2.73;;;17.10;99.90;;;;;;4173286;28;20306;-78
2023/05/15 09:06:49;;;;;;;6.30;3.27;;;17.10;99.90;;;;;;4168060;28;20232;-77
2023/05/15 09:08:55;;;;;;;5.83;2.83;;;17.30;99.90;;;;;;4176971;28;20839;-78
2023/05/15 09:11:00;;;;;;;6.13;3.43;;;17.30;99.90;;;;;;4172661;28;20203;-77
2023/05/15 09:13:03;;;;;;;6.67;3.83;;;17.40;99.90;;;;;;4176967;28;20271;-78
2023/05/15 09:15:09;;;;;;;6.67;3.83;;;17.50;99.90;;;;;;4171003;28;20215;-77
2023/05/15 09:17:11;;;;;;;5.13;3.70;;;17.50;99.90;;;;;;4173034;28;20228;-80
2023/05/15 09:19:15;;;;;;;9.17;5.27;;;17.60;99.90;;;;;;4167282;28;20213;-75
2023/05/15 09:21:26;;;;;;;60.80;24.30;;;17.70;99.90;;;;;;4166441;28;20224;-76
2023/05/15 09:23:30;;;;;;;46.43;18.30;;;17.80;99.90;;;;;;4166914;28;20266;-75
2023/05/15 09:25:37;;;;;;;32.13;14.70;;;17.90;99.90;;;;;;4172793;28;20209;-76
2023/05/15 09:27:43;;;;;;;26.97;12.47;;;18.00;99.90;;;;;;4170887;28;20238;-76
2023/05/15 09:29:45;;;;;;;20.53;9.50;;;18.10;99.90;;;;;;4169348;28;20212;-76
2023/05/15 09:31:47;;;;;;;14.67;6.80;;;18.20;99.90;;;;;;4167928;28;20795;-76
2023/05/15 09:33:59;;;;;;;12.37;5.90;;;18.30;99.90;;;;;;4173753;28;20660;-76
2023/05/15 09:36:02;;;;;;;9.77;4.43;;;18.40;99.90;;;;;;4167981;28;20781;-75
2023/05/15 09:38:08;;;;;;;8.00;4.40;;;18.50;99.90;;;;;;4172671;28;20206;-77
2023/05/15 09:40:12;;;;;;;6.63;3.77;;;18.60;99.90;;;;;;4170522;28;20264;-75
2023/05/15 09:42:15;;;;;;;6.87;3.57;;;18.80;99.90;;;;;;4171809;28;20234;-75
2023/05/15 09:44:24;;;;;;;4.97;3.20;;;18.90;99.90;;;;;;4172923;28;20565;-75
2023/05/15 09:46:26;;;;;;;8.43;3.67;;;19.00;99.90;;;;;;4170437;28;20234;-75
2023/05/15 09:48:29;;;;;;;5.83;3.73;;;19.20;99.90;;;;;;4170470;28;20211;-76
2023/05/15 09:50:34;;;;;;;6.53;3.90;;;19.30;99.90;;;;;;4174219;28;20217;-75
2023/05/15 09:52:36;;;;;;;6.67;4.03;;;19.40;99.90;;;;;;4169465;28;20203;-75
2023/05/15 09:54:38;;;;;;;6.67;3.70;;;19.50;99.90;;;;;;4169767;28;20260;-75
2023/05/15 09:56:43;;;;;;;4.50;3.50;;;19.50;99.90;;;;;;4172834;28;20238;-77
2023/05/15 09:58:54;;;;;;;4.23;3.23;;;19.60;99.90;;;;;;4169197;28;20210;-76
2023/05/15 10:01:00;;;;;;;5.17;3.60;;;19.70;99.90;;;;;;4171664;28;20615;-77
2023/05/15 10:03:03;;;;;;;3.97;3.07;;;19.80;99.90;;;;;;4171068;28;20211;-76
2023/05/15 10:05:05;;;;;;;4.07;3.10;;;19.90;99.90;;;;;;4176099;28;20217;-76
2023/05/15 10:07:08;;;;;;;9.03;4.40;;;19.90;99.90;;;;;;4170841;28;20872;-76
2023/05/15 10:09:11;;;;;;;7.07;3.60;;;20.00;99.90;;;;;;4165988;28;20237;-75
2023/05/15 10:11:13;;;;;;;7.27;4.10;;;20.10;99.90;;;;;;4172843;28;20257;-77
2023/05/15 10:13:18;;;;;;;7.80;3.90;;;20.10;99.70;;;;;;4174969;28;20206;-79
2023/05/15 10:15:21;;;;;;;3.93;3.07;;;20.10;96.60;;;;;;4175255;28;20218;-77
2023/05/15 10:17:23;;;;;;;5.23;3.37;;;20.20;93.10;;;;;;4173355;28;20230;-78
2023/05/15 10:19:27;;;;;;;9.23;3.63;;;20.20;92.80;;;;;;4179727;28;20251;-78
2023/05/15 10:21:31;;;;;;;4.00;2.97;;;20.20;90.20;;;;;;4178223;28;20234;-78
2023/05/15 10:23:36;;;;;;;5.10;3.27;;;20.20;93.20;;;;;;4172755;28;20268;-80
2023/05/15 10:25:42;;;;;;;3.70;2.83;;;20.30;95.40;;;;;;4179105;28;20214;-78
2023/05/15 10:27:46;;;;;;;4.33;2.90;;;20.50;84.90;;;;;;4171684;28;20226;-78
2023/05/15 10:29:50;;;;;;;4.30;2.90;;;20.50;71.30;;;;;;4174406;28;20203;-77
2023/05/15 10:31:53;;;;;;;4.57;2.63;;;20.60;72.00;;;;;;4173464;28;20205;-77
2023/05/15 10:33:55;;;;;;;4.63;3.20;;;20.70;69.90;;;;;;4170259;28;21187;-77
2023/05/15 10:35:59;;;;;;;4.23;3.03;;;20.80;62.40;;;;;;4171716;28;20269;-78
2023/05/15 10:38:05;;;;;;;3.17;2.70;;;20.80;64.70;;;;;;4169782;28;20663;-78